createdAt,value
2023-03-22T00:01:18.508Z,98059.45808575752
2023-03-22T00:04:16.248Z,98058.31327822666
2023-03-22T00:07:16.219Z,98062.22804208857
2023-03-22T00:11:17.982Z,98060.57589701234
2023-03-22T00:14:17.134Z,98054.44941437694
2023-03-22T00:17:16.895Z,98055.9012102443
2023-03-22T00:21:17.226Z,98057.90422794796
2023-03-22T00:24:16.344Z,98052.92393832459
2023-03-22T00:27:16.297Z,98047.10374092823
2023-03-22T00:31:15.889Z,98039.30176655499
2023-03-22T00:34:16.046Z,98040.81722381858
2023-03-22T00:37:16.414Z,98035.82410288944
2023-03-22T00:41:18.403Z,98045.7464168592
2023-03-22T00:44:16.461Z,98043.35937708092
2023-03-22T00:47:16.183Z,98041.1422501701
2023-03-22T00:51:16.464Z,98039.84756038488
2023-03-22T00:54:17.372Z,98041.11762583234
2023-03-22T00:57:18.106Z,98038.40312902998
2023-03-22T01:01:16.625Z,98037.28133157894
2023-03-22T01:04:18.377Z,98038.53131441963
2023-03-22T01:07:18.093Z,98033.56054654774
2023-03-22T01:11:16.606Z,98034.6092110268
2023-03-22T01:14:16.602Z,98032.43452591807
2023-03-22T01:17:16.620Z,98032.08980487751
2023-03-22T01:21:15.917Z,98028.813029081
2023-03-22T01:24:17.008Z,98027.81863917057
2023-03-22T01:27:16.532Z,98028.47211744533
2023-03-22T01:31:15.915Z,98022.03758683181
2023-03-22T01:34:16.995Z,98022.42325790616
2023-03-22T01:37:16.082Z,98022.95984544577
2023-03-22T01:41:16.363Z,98022.13279183835
2023-03-22T01:44:19.572Z,98026.66670425233
2023-03-22T01:47:16.636Z,98027.5470894755
2023-03-22T01:51:19.351Z,98026.27178613297
2023-03-22T01:54:22.312Z,98025.34178923657
2023-03-22T01:57:16.578Z,98027.58158186027
2023-03-22T02:01:15.705Z,98020.81831021555
2023-03-22T02:04:18.722Z,98022.77366961048
2023-03-22T02:07:18.042Z,98015.80172965158
2023-03-22T02:11:19.720Z,98018.35217026412
2023-03-22T02:14:31.161Z,98021.34437124945
2023-03-22T02:31:42.457Z,98025.94806056595
2023-03-22T02:34:35.189Z,98023.31869017197
2023-03-22T02:37:36.683Z,98020.75469562465
2023-03-22T02:41:26.779Z,98017.23674122657
2023-03-22T02:44:25.487Z,98023.42884629664
2023-03-22T02:47:23.376Z,98017.9276436516
2023-03-22T02:51:21.006Z,98017.8962363061
2023-03-22T02:54:22.646Z,98017.622199789
2023-03-22T02:57:24.368Z,98014.60873392475
2023-03-22T03:01:22.871Z,98022.9514662162
2023-03-22T03:04:18.822Z,98023.36148181133
2023-03-22T03:07:20.007Z,98016.49746829348
2023-03-22T03:11:17.101Z,98027.14536858205
2023-03-22T03:14:22.048Z,98028.54874258931
2023-03-22T03:17:29.059Z,98026.3758046604
2023-03-22T03:21:28.345Z,98025.08719743643
2023-03-22T03:24:25.284Z,98026.88322138379
2023-03-22T03:27:22.608Z,98029.68041008465
2023-03-22T03:31:27.798Z,98027.30863409194
2023-03-22T03:34:21.189Z,98031.6987850203
2023-03-22T03:37:21.104Z,98031.9855892471
2023-03-22T03:41:21.735Z,98036.65919896489
2023-03-22T03:44:18.011Z,98040.2693409938
2023-03-22T03:47:17.782Z,98036.39427241962
2023-03-22T03:51:15.923Z,98041.52617057218
2023-03-22T03:54:16.017Z,98043.81542820057
2023-03-22T03:57:16.889Z,98044.8456528218
2023-03-22T04:01:20.108Z,98040.74918865344
2023-03-22T04:04:18.538Z,98048.52179208175
2023-03-22T04:07:16.545Z,98046.90429340732
2023-03-22T04:11:16.543Z,98050.70194231498
2023-03-22T04:14:16.971Z,98043.211242952
2023-03-22T04:17:16.974Z,98046.257539424
2023-03-22T04:21:16.777Z,98045.87312679445
2023-03-22T04:24:16.109Z,98047.54073741139
2023-03-22T04:27:16.423Z,98045.87309263414
2023-03-22T04:31:16.224Z,98050.52732300115
2023-03-22T04:34:16.585Z,98044.70620843313
2023-03-22T04:37:17.568Z,98044.51406955809
2023-03-22T04:41:16.747Z,98050.37314312489
2023-03-22T04:44:16.020Z,98048.02126978796
2023-03-22T04:47:17.164Z,98053.48770909554
2023-03-22T04:51:15.933Z,98051.27847019485
2023-03-22T04:54:16.907Z,98056.51709477851
2023-03-22T04:57:16.067Z,98056.07001567712
2023-03-22T05:01:17.662Z,98056.95388737923
2023-03-22T05:04:17.765Z,98060.96757437711
2023-03-22T05:07:16.999Z,98057.1928964802
2023-03-22T05:11:17.643Z,98063.81357947999
2023-03-22T05:14:16.474Z,98058.59638805312
2023-03-22T05:17:16.419Z,98057.81338718206
2023-03-22T05:21:17.373Z,98056.9672635553
2023-03-22T05:24:16.608Z,98058.59608016179
2023-03-22T05:27:16.665Z,98059.28708751997
2023-03-22T05:31:17.582Z,98058.90001603785
2023-03-22T05:34:16.615Z,98061.7865673633
2023-03-22T05:37:16.937Z,98065.20855691179
2023-03-22T05:41:16.650Z,98066.9089242335
2023-03-22T05:44:16.903Z,98073.6427390243
2023-03-22T05:47:16.905Z,98076.7038475091
2023-03-22T05:51:17.787Z,98080.6949423069
2023-03-22T05:54:16.283Z,98078.83243666006
2023-03-22T05:57:19.165Z,98078.36834414164
2023-03-22T06:01:16.615Z,98075.9082086325
2023-03-22T06:11:16.261Z,98070.43382948369
2023-03-22T06:14:16.885Z,98077.52517194295
2023-03-22T06:17:17.024Z,98077.52917862362
2023-03-22T06:21:15.599Z,98078.74033499468
2023-03-22T06:24:16.081Z,98081.30722782473
2023-03-22T06:27:16.851Z,98086.06196454114
2023-03-22T06:31:15.848Z,98090.94264751322
2023-03-22T06:34:16.020Z,98093.16957955125
2023-03-22T06:37:16.621Z,98092.45407998019
2023-03-22T06:41:16.506Z,98092.33305245546
2023-03-22T06:44:17.323Z,98091.02068409292
2023-03-22T06:51:16.725Z,98090.49431906528
2023-03-22T06:54:17.064Z,98088.83013213756
2023-03-22T06:57:16.783Z,98094.50378557373
2023-03-22T07:01:16.578Z,98094.734530854
2023-03-22T07:04:16.863Z,98085.08597574971
2023-03-22T07:07:16.895Z,98090.42428697435
2023-03-22T07:11:16.451Z,98090.05751153456
2023-03-22T07:14:16.680Z,98093.60141716988
2023-03-22T07:17:16.812Z,98090.03033993581
2023-03-22T07:21:15.906Z,98089.76434011578
2023-03-22T07:24:16.236Z,98089.97292099961
2023-03-22T07:27:16.243Z,98095.54691593502
2023-03-22T07:31:16.120Z,98096.55463911171
2023-03-22T07:41:17.322Z,98101.78303847804
2023-03-22T07:44:18.616Z,98103.3836021826
2023-03-22T07:47:22.085Z,98101.85280864831
2023-03-22T07:51:17.041Z,98098.62062564764
2023-03-22T07:54:32.241Z,98096.06381273168
2023-03-22T07:57:16.806Z,98095.433218683
2023-03-22T08:01:16.543Z,98095.00497129787
2023-03-22T08:04:17.104Z,98096.97287475082
2023-03-22T08:07:18.660Z,98094.40343719386
2023-03-22T08:11:15.899Z,98095.58224515889
2023-03-22T08:14:18.528Z,98094.39623886558
2023-03-22T08:17:17.109Z,98097.08184705608
2023-03-22T08:21:16.342Z,98102.80526256998
2023-03-22T08:24:16.795Z,98096.63121912813
2023-03-22T08:27:17.313Z,98100.22796418477
2023-03-22T08:31:17.091Z,98105.42177079222
2023-03-22T08:34:17.233Z,98101.85266337544
2023-03-22T08:37:16.693Z,98103.09740767817
2023-03-22T08:41:16.310Z,98106.34916472613
2023-03-22T08:44:16.108Z,98108.75956023719
2023-03-22T08:47:15.977Z,98110.75063254003
2023-03-22T08:51:18.284Z,98108.41764307476
2023-03-22T08:54:16.694Z,98112.18196238049
2023-03-22T08:57:16.609Z,98106.56664827383
2023-03-22T09:01:16.969Z,98107.22503922682
2023-03-22T09:04:16.363Z,98111.86583978265
2023-03-22T09:07:18.156Z,98109.17760555976
2023-03-22T09:11:18.004Z,98111.6482022249
2023-03-22T09:14:16.814Z,98106.92489453728
2023-03-22T09:17:21.326Z,98105.72805386865
2023-03-22T09:21:16.227Z,98110.42844580184
2023-03-22T09:24:16.664Z,98104.96191464676
2023-03-22T09:27:16.710Z,98106.5172602532
2023-03-22T09:31:19.122Z,98102.70865774293
2023-03-22T09:34:16.938Z,98099.7861081784
2023-03-22T09:37:18.082Z,98099.79551670265
2023-03-22T09:51:29.706Z,98084.20562215
2023-03-22T09:54:23.254Z,98084.16103742392
2023-03-22T09:57:24.743Z,98085.95660682391
2023-03-22T10:01:28.944Z,98073.99520837328
2023-03-22T10:04:29.168Z,98076.8217887368
2023-03-22T10:07:25.177Z,98079.65721258603
2023-03-22T10:11:24.342Z,98071.51863265621
2023-03-22T10:14:28.583Z,98078.94076393692
2023-03-22T10:17:22.793Z,98079.93970810168
2023-03-22T10:21:18.615Z,98078.16481610722
2023-03-22T10:24:21.586Z,98081.68954516928
2023-03-22T10:27:18.997Z,98073.72530634743
2023-03-22T10:31:18.903Z,98070.044084975
2023-03-22T10:34:21.242Z,98072.24605984485
2023-03-22T10:37:19.368Z,98069.12393930575
2023-03-22T10:41:18.384Z,98066.9925960231
2023-03-22T10:44:18.871Z,98065.15969214673
2023-03-22T10:47:26.355Z,98066.20186477168
2023-03-22T11:01:25.477Z,98049.20349886827
2023-03-22T11:04:16.783Z,98045.86360585135
2023-03-22T11:07:30.310Z,98047.06011035913
2023-03-22T11:11:20.137Z,98039.24742959654
2023-03-22T11:14:22.362Z,98036.78617783818
2023-03-22T11:17:21.806Z,98044.73687978448
2023-03-22T11:21:18.775Z,98039.11490718585
2023-03-22T11:24:18.044Z,98040.88157834215
2023-03-22T11:27:20.339Z,98035.19095480442
2023-03-22T11:31:18.466Z,98027.44778819928
2023-03-22T11:34:18.901Z,98025.15676320858
2023-03-22T11:37:18.169Z,98026.38083715834
2023-03-22T11:41:22.616Z,98024.08157142837
2023-03-22T11:44:20.298Z,98023.92905844584
2023-03-22T11:47:16.574Z,98022.36386482131
2023-03-22T11:51:26.956Z,98023.60737763288
2023-03-22T11:54:28.477Z,98017.42301416365
2023-03-22T11:57:22.215Z,98016.80078771533
2023-03-22T12:01:20.517Z,98019.58682889707
2023-03-22T12:04:19.837Z,98015.74878697921
2023-03-22T12:07:18.921Z,98012.23873511388
2023-03-22T12:11:23.983Z,98007.43072132918
2023-03-22T12:14:21.607Z,98002.65288980957
2023-03-22T12:17:25.731Z,98000.79991805888
2023-03-22T12:21:16.773Z,98003.78563773878
2023-03-22T12:24:25.117Z,97996.20435267306
2023-03-22T12:27:20.694Z,97993.4966361464
2023-03-22T12:31:20.448Z,97992.49490216566
2023-03-22T12:34:20.486Z,97985.64925350515
2023-03-22T12:37:20.337Z,97986.93197577809
2023-03-22T12:41:24.403Z,97989.82333155943
2023-03-22T12:44:23.688Z,97990.95003396612
2023-03-22T12:47:23.521Z,97995.07195684365
2023-03-22T12:51:15.963Z,97991.74119943724
2023-03-22T12:54:19.961Z,97988.63080655257
2023-03-22T12:57:17.315Z,97989.43414561804
2023-03-22T13:01:28.721Z,97986.11408018396
2023-03-22T13:04:49.310Z,97986.23711092415
2023-03-22T13:07:31.276Z,97980.6008956313
2023-03-22T13:11:23.265Z,97977.3604525669
2023-03-22T13:15:35.071Z,97976.14641834743
2023-03-22T13:17:33.165Z,97966.31810321636
2023-03-22T13:21:19.254Z,97972.14513402665
2023-03-22T13:24:23.426Z,97968.96580066858
2023-03-22T13:27:17.268Z,97973.7987823885
2023-03-22T13:31:33.365Z,97972.55852384507
2023-03-22T13:34:19.185Z,97964.15536288974
2023-03-22T13:37:30.899Z,97961.83149794546
2023-03-22T13:41:23.650Z,97951.36051235175
2023-03-22T13:44:23.809Z,97953.38028550867
2023-03-22T13:47:36.181Z,97951.69607182813
2023-03-22T13:51:20.187Z,97953.55579556414
2023-03-22T13:54:21.254Z,97947.11676924209
2023-03-22T13:57:47.094Z,97950.01686282393
2023-03-22T14:01:25.887Z,97949.21759072776
2023-03-22T14:04:29.240Z,97945.02182056647
2023-03-22T14:07:24.578Z,97938.60173752073
2023-03-22T14:11:21.944Z,97929.13294410334
2023-03-22T14:14:22.779Z,97932.60495103929
2023-03-22T14:17:28.836Z,97931.45253014374
2023-03-22T14:21:20.924Z,97931.86270331962
2023-03-22T14:51:27.422Z,97897.82763282415
2023-03-22T14:54:25.930Z,97896.20093656116
2023-03-22T14:57:28.454Z,97901.73675889496
2023-03-22T15:01:23.269Z,97900.87859028018
2023-03-22T15:04:17.590Z,97899.39088509284
2023-03-22T15:07:18.902Z,97895.90669547775
2023-03-22T15:11:16.952Z,97895.35854762571
2023-03-22T15:14:16.839Z,97900.2997012525
2023-03-22T15:17:16.300Z,97896.84473733675
2023-03-22T15:21:16.559Z,97899.90740432474
2023-03-22T15:24:27.879Z,97899.90681290808
2023-03-22T15:27:17.760Z,97903.1413239982
2023-03-22T15:31:23.365Z,97899.3867858125
2023-03-22T15:34:19.129Z,97909.1839142818
2023-03-22T15:37:24.835Z,97908.3315934586
2023-03-22T15:41:23.517Z,97908.22324944694
2023-03-22T15:44:21.864Z,97905.17770503843
2023-03-22T15:47:18.520Z,97906.73624664934
2023-03-22T15:51:19.062Z,97911.24656257973
2023-03-22T15:54:21.709Z,97910.46950619397
2023-03-22T15:57:19.590Z,97909.39233587268
2023-03-22T16:01:19.209Z,97911.15813363367
2023-03-22T16:04:19.510Z,97914.51743338475
2023-03-22T16:07:16.931Z,97924.34014489547
2023-03-22T16:11:19.955Z,97923.45682296982
2023-03-22T16:14:17.530Z,97921.26508854775
2023-03-22T16:17:19.063Z,97923.54662038118
2023-03-22T16:21:19.294Z,97930.08478320164
2023-03-22T16:24:16.873Z,97929.44295453299
2023-03-22T16:27:19.255Z,97925.8544640625
2023-03-22T16:31:17.412Z,97934.37024862437
2023-03-22T16:34:16.127Z,97934.21550697926
2023-03-22T16:37:17.865Z,97935.44089258279
2023-03-22T16:41:20.900Z,97940.67945182756
2023-03-22T16:44:17.233Z,97941.1014890362
2023-03-22T16:47:19.453Z,97950.23453918446
2023-03-22T16:51:22.681Z,97947.83736742477
2023-03-22T16:54:16.866Z,97943.66623026622
2023-03-22T16:57:19.047Z,97945.64776245662
2023-03-22T17:01:18.638Z,97949.78811013026
2023-03-22T17:04:16.119Z,97952.89814277284
2023-03-22T17:07:19.000Z,97951.0069099346
2023-03-22T17:11:20.154Z,97959.91867315277
2023-03-22T17:14:15.966Z,97960.0137945997
2023-03-22T17:17:17.199Z,97963.86952283299
2023-03-22T17:21:18.815Z,97960.05165814362
2023-03-22T17:24:16.320Z,97966.99774375577
2023-03-22T17:27:16.421Z,97965.28202693592
2023-03-22T17:31:18.038Z,97971.49411257774
2023-03-22T17:34:17.071Z,97970.715712137
2023-03-22T17:37:16.744Z,97968.89938284761
2023-03-22T17:41:18.726Z,97969.87190279565
2023-03-22T17:44:16.343Z,97974.29502847465
2023-03-22T17:47:34.668Z,97972.08101471145
2023-03-22T17:51:16.095Z,97973.78285056465
2023-03-22T17:54:58.377Z,97978.1688277949
2023-03-22T18:01:18.539Z,97986.91926323719
2023-03-22T18:04:16.039Z,97986.70146202065
2023-03-22T18:07:16.120Z,97990.67334990074
2023-03-22T18:11:18.491Z,98004.47286806173
2023-03-22T18:14:26.956Z,98007.95545486332
2023-03-22T18:17:18.879Z,98010.56412348809
2023-03-22T18:21:17.545Z,98012.82083507387
2023-03-22T18:24:16.570Z,98007.46814843881
2023-03-22T18:27:17.815Z,98005.40599167753
2023-03-22T18:31:17.807Z,98014.50098958833
2023-03-22T18:34:18.255Z,98020.40382804157
2023-03-22T18:37:18.758Z,98025.73430927553
2023-03-22T18:44:20.202Z,98031.30054713387
2023-03-22T18:47:19.574Z,98031.38582400694
2023-03-22T18:51:18.175Z,98032.6632845879
2023-03-22T18:54:16.474Z,98043.17831807071
2023-03-22T18:57:20.396Z,98046.13407735042
2023-03-22T19:01:16.613Z,98043.90009986922
2023-03-22T19:04:17.117Z,98047.8247854407
2023-03-22T19:07:20.312Z,98050.09866071823
2023-03-22T19:11:16.829Z,98057.74582455178
2023-03-22T19:15:05.717Z,98052.90386178585
2023-03-22T19:17:16.506Z,98054.04184425311
2023-03-22T19:21:26.684Z,98056.20293957248
2023-03-22T19:24:16.305Z,98057.55099343814
2023-03-22T19:27:19.266Z,98053.41236648663
2023-03-22T19:31:16.211Z,98057.37091895255
2023-03-22T19:34:16.640Z,98054.2219723286
2023-03-22T19:37:17.848Z,98055.90131331465
2023-03-22T19:41:47.235Z,98053.34212733644
2023-03-22T19:44:17.366Z,98053.32012966978
2023-03-22T19:47:16.447Z,98053.71986102822
2023-03-22T19:51:17.409Z,98056.26938603366
2023-03-22T19:57:18.684Z,98051.52827125427
2023-03-22T20:01:16.887Z,98052.38901706523
2023-03-22T20:04:16.747Z,98057.26899616481
2023-03-22T20:07:19.841Z,98056.96432365463
2023-03-22T20:31:17.119Z,98071.0552774715
2023-03-22T20:34:16.707Z,98076.59422441015
2023-03-22T20:37:19.198Z,98077.8094882128
2023-03-22T20:41:15.932Z,98075.50788369973
2023-03-22T20:44:15.994Z,98081.15537622651
2023-03-22T20:47:16.193Z,98082.48524070364
2023-03-22T20:51:15.598Z,98080.3691024583
2023-03-22T20:54:17.323Z,98078.24100060332
2023-03-22T20:57:17.372Z,98087.66008611473
2023-03-22T21:01:18.397Z,98093.14629145786
2023-03-22T21:04:18.604Z,98097.35082403407
2023-03-22T21:07:16.726Z,98100.43590854882
2023-03-22T21:11:16.563Z,98094.29709257143
2023-03-22T21:14:16.790Z,98097.13490687165
2023-03-22T21:17:19.075Z,98096.38529990768
2023-03-22T21:21:16.016Z,98091.01848457674
2023-03-22T21:24:16.382Z,98098.27378359396
2023-03-22T21:27:20.480Z,98097.24345756567
2023-03-22T21:31:15.869Z,98093.37778537361
2023-03-22T21:34:15.965Z,98099.71825139814
2023-03-22T21:37:16.821Z,98098.60120639086
2023-03-22T21:41:16.413Z,98100.51248754919
2023-03-22T21:44:16.101Z,98100.28270903812
2023-03-22T21:47:21.231Z,98103.95686195989
2023-03-22T21:51:16.465Z,98097.23449090024
2023-03-22T21:54:18.414Z,98101.08871867409
2023-03-22T21:57:17.257Z,98097.35257257569
2023-03-22T22:01:17.227Z,98102.1470547179
2023-03-22T22:04:17.576Z,98105.97785118691
2023-03-22T22:07:17.879Z,98110.57071266441
2023-03-22T22:11:16.075Z,98112.64222626701
2023-03-22T22:14:16.401Z,98114.95313609301
2023-03-22T22:17:16.506Z,98119.03181552982
2023-03-22T22:21:16.163Z,98116.39680155311
2023-03-22T22:24:16.430Z,98114.67993949575
2023-03-22T22:27:18.642Z,98112.87410911576
2023-03-22T22:31:18.522Z,98112.30611788922
2023-03-22T22:34:16.067Z,98109.19653072463
2023-03-22T22:37:16.041Z,98105.80915310414
2023-03-22T22:41:17.342Z,98102.70330394177
2023-03-22T22:44:16.438Z,98101.19183303003
2023-03-22T22:47:15.847Z,98096.3919326672
2023-03-22T22:51:19.685Z,98101.06198340835
2023-03-22T22:54:16.678Z,98098.82137077511
2023-03-22T22:57:16.718Z,98094.87321171578
2023-03-22T23:01:18.004Z,98098.4864181503
2023-03-22T23:04:16.885Z,98104.27774951814
2023-03-22T23:07:16.647Z,98105.93143657142
2023-03-22T23:11:22.691Z,98103.59239461872
2023-03-22T23:14:16.386Z,98101.11482249948
2023-03-22T23:17:18.301Z,98097.42535051204
2023-03-22T23:21:18.005Z,98096.60517673333
2023-03-22T23:24:16.664Z,98093.31070380045
2023-03-22T23:27:17.744Z,98094.04711434076
2023-03-22T23:31:16.442Z,98094.10988481475
2023-03-22T23:34:18.111Z,98095.91940476577
2023-03-22T23:37:17.650Z,98092.29211728237
2023-03-22T23:41:16.808Z,98096.69611151269
2023-03-22T23:44:17.452Z,98095.89699973416
2023-03-22T23:47:16.621Z,98093.17898185001
2023-03-22T23:51:18.528Z,98091.21785270351
2023-03-22T23:54:17.011Z,98088.41907008328
2023-03-22T23:57:22.087Z,98092.34076564267
